Time;durP1;ratioP1;P1;durP2;ratioP2;P2;SDS_P1;SDS_P2;PMS_P1;PMS_P2;Temp;Humidity;BMP_temperature;BMP_pressure;BME280_temperature;BME280_humidity;BME280_pressure;Samples;Min_cycle;Max_cycle;Signal;HPM_P1;HPM_P2
2023/12/05 00:01:01;;;;;;;18.38;9.95;;;-0.20;99.90;;;;;;4951849;28;20042;-75
2023/12/05 00:03:27;;;;;;;19.25;10.80;;;-0.20;99.90;;;;;;4947593;28;20059;-75
2023/12/05 00:05:52;;;;;;;20.00;9.50;;;0.10;99.90;;;;;;4964436;28;20510;-75
2023/12/05 00:08:18;;;;;;;16.17;10.07;;;-0.30;99.90;;;;;;4957211;28;20410;-75
2023/12/05 00:10:44;;;;;;;16.10;8.70;;;-0.30;99.90;;;;;;4945695;28;20039;-75
2023/12/05 00:13:10;;;;;;;19.58;10.15;;;-0.20;99.90;;;;;;4954298;28;20035;-75
2023/12/05 00:15:36;;;;;;;19.67;10.05;;;0.10;99.90;;;;;;4915954;28;20501;-75
2023/12/05 00:18:02;;;;;;;16.65;9.18;;;-0.30;99.90;;;;;;4958532;28;20042;-75
2023/12/05 00:20:27;;;;;;;20.52;10.43;;;-0.30;99.90;;;;;;4948613;28;20108;-75
2023/12/05 00:22:53;;;;;;;12.35;6.45;;;-0.30;99.90;;;;;;4924418;28;20042;-75
2023/12/05 00:25:19;;;;;;;21.58;10.27;;;-0.30;99.90;;;;;;4958185;28;20118;-75
2023/12/05 00:27:45;;;;;;;16.65;9.15;;;-0.30;99.90;;;;;;4960708;28;20104;-75
2023/12/05 00:30:11;;;;;;;16.52;8.73;;;-0.30;99.90;;;;;;4966617;28;20412;-75
2023/12/05 00:32:37;;;;;;;16.15;9.70;;;-0.30;99.90;;;;;;4970212;28;20042;-75
2023/12/05 00:35:03;;;;;;;22.17;10.10;;;-0.30;99.90;;;;;;4934417;28;20045;-75
2023/12/05 00:37:28;;;;;;;14.18;9.10;;;-0.30;99.90;;;;;;4949058;28;20493;-75
2023/12/05 00:39:54;;;;;;;18.08;9.98;;;-0.30;99.90;;;;;;4960904;28;20105;-75
2023/12/05 00:42:20;;;;;;;16.58;10.18;;;-0.30;99.90;;;;;;4945182;28;20039;-75
2023/12/05 00:44:45;;;;;;;15.80;9.05;;;-0.40;99.90;;;;;;4952334;28;20477;-75
2023/12/05 00:47:11;;;;;;;21.70;11.15;;;-0.30;99.90;;;;;;4960162;28;20038;-75
2023/12/05 00:49:37;;;;;;;21.80;11.00;;;-0.30;99.90;;;;;;4939417;28;20046;-75
2023/12/05 00:52:03;;;;;;;21.50;11.18;;;-0.30;99.90;;;;;;4964653;28;20058;-74
2023/12/05 00:54:29;;;;;;;14.15;7.78;;;-0.30;99.90;;;;;;4969374;28;20536;-75
2023/12/05 00:56:55;;;;;;;23.88;11.52;;;-0.30;99.90;;;;;;4946960;28;20050;-74
2023/12/05 00:59:20;;;;;;;22.25;12.05;;;-0.30;99.90;;;;;;4956675;28;20047;-75
2023/12/05 01:01:47;;;;;;;15.40;8.60;;;-0.30;99.90;;;;;;4948121;28;20637;-74
2023/12/05 01:04:12;;;;;;;21.85;11.43;;;-0.30;99.90;;;;;;4947066;28;20051;-74
2023/12/05 01:06:38;;;;;;;23.60;11.25;;;-0.30;99.90;;;;;;4949058;28;20097;-75
2023/12/05 01:09:06;;;;;;;21.63;10.80;;;-0.30;99.90;;;;;;4945489;28;20046;-74
2023/12/05 01:11:32;;;;;;;17.48;10.35;;;-0.30;99.90;;;;;;4945920;28;20127;-74
2023/12/05 01:13:57;;;;;;;19.80;10.50;;;0.10;99.90;;;;;;4947690;28;20121;-74
2023/12/05 01:16:23;;;;;;;21.60;11.65;;;-0.30;99.90;;;;;;4950668;28;20049;-74
2023/12/05 01:18:49;;;;;;;23.30;13.57;;;-0.30;99.90;;;;;;4959419;28;20129;-74
2023/12/05 01:21:15;;;;;;;20.33;11.65;;;-0.30;99.90;;;;;;4942147;28;20473;-74
2023/12/05 01:23:41;;;;;;;21.80;12.40;;;-0.30;99.90;;;;;;4960513;28;20066;-74
2023/12/05 01:26:07;;;;;;;19.75;11.80;;;-0.30;99.90;;;;;;4965375;28;20093;-74
2023/12/05 01:28:32;;;;;;;24.67;13.90;;;-0.30;99.90;;;;;;4964973;28;20043;-74
2023/12/05 01:30:58;;;;;;;25.52;12.93;;;-0.30;99.90;;;;;;4961259;28;20043;-74
2023/12/05 01:33:24;;;;;;;25.50;12.73;;;-0.30;99.90;;;;;;4959579;28;20034;-74
2023/12/05 01:35:49;;;;;;;23.17;12.82;;;-0.30;99.90;;;;;;4953819;28;20080;-74
2023/12/05 01:38:18;;;;;;;19.25;11.15;;;-0.30;99.90;;;;;;4924401;28;20110;-75
2023/12/05 01:40:44;;;;;;;27.02;12.88;;;0.10;99.90;;;;;;4959317;28;20039;-74
2023/12/05 01:43:10;;;;;;;19.73;12.25;;;-0.30;99.90;;;;;;4944591;28;20043;-74
2023/12/05 01:45:35;;;;;;;22.92;11.77;;;-0.20;99.90;;;;;;4945166;28;20054;-74
2023/12/05 01:48:03;;;;;;;17.90;9.45;;;-0.20;99.90;;;;;;4961637;28;20041;-74
2023/12/05 01:50:29;;;;;;;21.60;11.30;;;-0.20;99.90;;;;;;4964060;28;20039;-75
2023/12/05 01:52:59;;;;;;;22.70;12.18;;;0.10;99.90;;;;;;4946127;28;20077;-75
2023/12/05 01:55:28;;;;;;;23.50;12.88;;;-0.20;99.90;;;;;;4963269;28;20126;-75
2023/12/05 01:57:55;;;;;;;22.35;12.65;;;-0.20;99.90;;;;;;4952358;28;20039;-75
2023/12/05 02:00:23;;;;;;;21.05;12.88;;;-0.20;99.90;;;;;;4945906;28;20046;-74
2023/12/05 02:02:49;;;;;;;23.98;13.48;;;-0.20;99.90;;;;;;4945513;28;20160;-74
2023/12/05 02:05:15;;;;;;;20.83;12.23;;;-0.20;99.90;;;;;;4947357;28;20535;-75
2023/12/05 02:07:41;;;;;;;20.33;10.90;;;-0.20;99.90;;;;;;4941691;28;20039;-74
2023/12/05 02:10:09;;;;;;;23.55;12.52;;;-0.20;99.90;;;;;;4949646;28;20164;-74
2023/12/05 02:12:38;;;;;;;26.58;12.55;;;-0.20;99.90;;;;;;4964535;28;20081;-74
2023/12/05 02:15:05;;;;;;;20.83;11.15;;;-0.20;99.90;;;;;;4963104;28;20039;-74
2023/12/05 02:18:01;;;;;;;20.00;10.48;;;-0.10;99.90;;;;;;4951579;28;20039;-74
2023/12/05 02:20:42;;;;;;;21.02;11.73;;;-0.20;99.90;;;;;;4956421;28;20133;-74
2023/12/05 02:23:33;;;;;;;22.88;13.13;;;-0.10;99.90;;;;;;4936826;28;20106;-74
2023/12/05 02:26:09;;;;;;;24.17;11.82;;;-0.20;99.90;;;;;;4971819;28;20046;-74
2023/12/05 02:28:36;;;;;;;21.63;12.65;;;-0.20;99.90;;;;;;4960027;28;20083;-74
2023/12/05 02:31:02;;;;;;;23.80;11.40;;;-0.10;99.90;;;;;;4955048;28;20042;-74
2023/12/05 02:33:27;;;;;;;23.27;11.88;;;-0.10;99.90;;;;;;4953771;28;20039;-74
2023/12/05 02:36:32;;;;;;;18.88;11.85;;;-0.20;99.90;;;;;;4963005;28;20113;-74
2023/12/05 02:39:12;;;;;;;18.80;11.18;;;-0.10;99.90;;;;;;4959562;28;20046;-74
2023/12/05 02:41:41;;;;;;;21.13;12.30;;;-0.20;99.90;;;;;;4946706;28;20035;-74
2023/12/05 02:44:11;;;;;;;24.55;12.90;;;-0.10;99.90;;;;;;4947878;28;20050;-74
2023/12/05 02:46:39;;;;;;;19.17;11.52;;;-0.10;99.90;;;;;;4962459;28;20119;-74
2023/12/05 02:49:06;;;;;;;20.13;11.00;;;-0.10;99.90;;;;;;4949644;28;20109;-74
2023/12/05 02:51:32;;;;;;;24.73;13.15;;;1.20;99.90;;;;;;4961996;28;20063;-74
2023/12/05 02:54:05;;;;;;;19.58;12.45;;;-0.10;99.90;;;;;;4944160;28;20058;-74
2023/12/05 02:56:31;;;;;;;27.15;13.52;;;-0.10;99.90;;;;;;4950390;28;20110;-74
2023/12/05 02:58:57;;;;;;;24.27;13.50;;;0.10;99.90;;;;;;4963946;28;20390;-74
2023/12/05 03:01:23;;;;;;;22.65;12.30;;;-0.10;99.90;;;;;;4950920;28;20591;-74
2023/12/05 03:03:49;;;;;;;23.95;13.35;;;-0.10;99.90;;;;;;4964291;28;20047;-74
2023/12/05 03:06:15;;;;;;;25.17;13.15;;;-0.10;99.90;;;;;;4935864;28;20051;-74
2023/12/05 03:08:40;;;;;;;25.52;13.63;;;-0.10;99.90;;;;;;4950375;28;20049;-74
2023/12/05 03:11:06;;;;;;;25.98;13.60;;;-0.10;99.90;;;;;;4960308;28;20026;-74
2023/12/05 03:13:32;;;;;;;25.92;13.40;;;-0.10;99.90;;;;;;4950239;28;20440;-74
2023/12/05 03:15:58;;;;;;;20.83;11.98;;;-0.10;99.90;;;;;;4928806;28;20038;-74
2023/12/05 03:18:24;;;;;;;25.58;13.02;;;-0.10;99.90;;;;;;4969124;28;20126;-74
2023/12/05 03:20:50;;;;;;;21.20;12.45;;;-0.10;99.90;;;;;;4949692;28;20404;-74
2023/12/05 03:23:18;;;;;;;22.67;11.98;;;-0.10;99.90;;;;;;4961375;28;20046;-74
2023/12/05 03:25:44;;;;;;;23.75;12.65;;;-0.10;99.90;;;;;;4962588;28;20469;-74
2023/12/05 03:28:10;;;;;;;22.38;12.90;;;-0.10;99.90;;;;;;4943968;28;20042;-74
2023/12/05 03:30:35;;;;;;;23.65;13.35;;;-0.10;99.90;;;;;;4947524;28;20039;-74
2023/12/05 03:33:01;;;;;;;28.83;13.88;;;-0.10;99.90;;;;;;4943848;28;20035;-74
2023/12/05 03:35:27;;;;;;;23.95;13.05;;;-0.10;99.90;;;;;;4948847;28;20098;-74
2023/12/05 03:37:52;;;;;;;24.63;14.38;;;-0.10;99.90;;;;;;4961071;28;20054;-74
2023/12/05 03:40:18;;;;;;;26.58;13.13;;;-0.10;99.90;;;;;;4966013;28;20050;-74
2023/12/05 03:42:44;;;;;;;25.25;13.75;;;-0.10;99.90;;;;;;4957933;28;20481;-74
2023/12/05 03:45:10;;;;;;;29.20;14.20;;;-0.10;99.90;;;;;;4943342;28;20039;-74
2023/12/05 03:47:35;;;;;;;24.63;14.07;;;-0.10;99.90;;;;;;4944446;28;20081;-74
2023/12/05 03:50:02;;;;;;;26.65;13.57;;;0.00;99.90;;;;;;4942072;28;20511;-74
2023/12/05 03:52:27;;;;;;;28.33;14.63;;;-0.10;99.90;;;;;;4964388;28;20137;-74
2023/12/05 03:54:53;;;;;;;24.35;14.35;;;0.00;99.90;;;;;;4954324;28;20122;-74
2023/12/05 03:57:19;;;;;;;26.15;13.48;;;0.00;99.90;;;;;;4963522;28;20070;-74
2023/12/05 03:59:46;;;;;;;26.23;14.50;;;0.10;99.90;;;;;;4958833;28;21730;-74
2023/12/05 04:02:12;;;;;;;29.15;15.48;;;0.50;99.90;;;;;;4990326;28;20082;-74
2023/12/05 04:04:37;;;;;;;28.23;14.82;;;-0.10;99.90;;;;;;4958836;28;20078;-74
2023/12/05 04:07:04;;;;;;;31.48;16.80;;;-0.10;99.90;;;;;;4948622;28;20050;-74
2023/12/05 04:09:30;;;;;;;28.88;14.75;;;-0.10;99.90;;;;;;4944999;28;20054;-74
2023/12/05 04:11:56;;;;;;;24.90;13.23;;;-0.10;99.90;;;;;;4948462;28;20289;-74
2023/12/05 04:14:21;;;;;;;27.55;13.05;;;0.00;99.90;;;;;;4963930;28;20046;-74
2023/12/05 04:16:47;;;;;;;25.08;13.40;;;0.00;99.90;;;;;;4949149;28;20087;-74
2023/12/05 04:19:13;;;;;;;27.15;14.05;;;-0.10;99.90;;;;;;4933968;28;20042;-74
2023/12/05 04:21:38;;;;;;;32.35;16.73;;;0.00;99.90;;;;;;4943276;28;20038;-74
2023/12/05 04:24:06;;;;;;;25.45;15.05;;;0.10;99.90;;;;;;4969126;28;20114;-74
2023/12/05 04:26:32;;;;;;;28.55;15.68;;;0.00;99.90;;;;;;4942516;28;20066;-74
2023/12/05 04:28:57;;;;;;;33.70;17.10;;;0.00;99.90;;;;;;4960444;28;20042;-74
2023/12/05 04:31:29;;;;;;;31.02;14.25;;;-0.10;99.90;;;;;;4942301;28;20039;-74
2023/12/05 04:33:54;;;;;;;28.83;14.63;;;0.60;99.90;;;;;;4973703;28;20031;-74
2023/12/05 04:36:23;;;;;;;34.30;16.02;;;0.10;99.90;;;;;;4958537;28;20582;-74
2023/12/05 04:38:48;;;;;;;26.90;15.00;;;0.00;99.90;;;;;;4977585;28;20221;-74
2023/12/05 04:41:14;;;;;;;25.92;15.32;;;0.40;99.90;;;;;;4922701;28;20046;-74
2023/12/05 04:43:40;;;;;;;27.80;15.05;;;0.00;99.90;;;;;;4948244;28;20039;-74
2023/12/05 04:46:06;;;;;;;31.38;15.23;;;-0.10;99.90;;;;;;4965931;28;20078;-74
2023/12/05 04:48:31;;;;;;;28.13;15.23;;;0.00;99.90;;;;;;4945824;28;20489;-74
2023/12/05 04:50:57;;;;;;;29.08;15.65;;;0.30;99.90;;;;;;4940060;28;20489;-74
2023/12/05 04:53:23;;;;;;;30.88;15.32;;;-0.10;99.90;;;;;;4918639;28;20145;-74
2023/12/05 04:55:48;;;;;;;33.63;15.32;;;0.00;99.90;;;;;;4948472;28;20046;-74
2023/12/05 04:58:14;;;;;;;27.65;16.60;;;0.00;99.90;;;;;;4925301;28;20038;-74
2023/12/05 05:00:40;;;;;;;30.70;16.05;;;0.00;99.90;;;;;;4944958;28;20070;-74
2023/12/05 05:03:05;;;;;;;30.75;15.75;;;0.00;99.90;;;;;;4962921;28;20175;-74
2023/12/05 05:05:31;;;;;;;33.92;16.33;;;-0.10;99.90;;;;;;4954741;28;20039;-74
2023/12/05 05:07:57;;;;;;;32.10;15.25;;;0.00;99.90;;;;;;4964422;28;20042;-74
2023/12/05 05:10:22;;;;;;;29.85;15.70;;;0.00;99.90;;;;;;4944679;28;20093;-74
2023/12/05 05:12:48;;;;;;;30.58;15.38;;;0.00;99.90;;;;;;4940821;28;20046;-74
2023/12/05 05:15:14;;;;;;;33.28;16.85;;;0.00;99.90;;;;;;4965413;28;20043;-74
2023/12/05 05:17:40;;;;;;;26.55;14.93;;;-0.10;99.90;;;;;;4931578;28;20404;-74
2023/12/05 05:20:06;;;;;;;33.58;17.55;;;-0.10;99.90;;;;;;4959209;28;20077;-74
2023/12/05 05:22:32;;;;;;;30.95;16.10;;;0.00;99.90;;;;;;4947459;28;20053;-75
2023/12/05 05:24:58;;;;;;;28.38;14.95;;;0.00;99.90;;;;;;4960810;28;20078;-74
2023/12/05 05:27:24;;;;;;;29.42;15.57;;;0.00;99.90;;;;;;4957134;28;20081;-74
2023/12/05 05:29:49;;;;;;;30.35;16.92;;;0.00;99.90;;;;;;4945413;28;20097;-74
2023/12/05 05:32:15;;;;;;;32.13;17.73;;;0.00;99.90;;;;;;4950534;28;20460;-74
2023/12/05 05:34:41;;;;;;;29.50;15.52;;;0.00;99.90;;;;;;4948356;28;20038;-74
2023/12/05 05:37:07;;;;;;;32.30;16.35;;;0.00;99.90;;;;;;4964503;28;20050;-74
2023/12/05 05:39:32;;;;;;;29.90;15.63;;;0.00;99.90;;;;;;4944666;28;20478;-75
2023/12/05 05:41:58;;;;;;;38.15;17.52;;;0.00;99.90;;;;;;4943676;28;20165;-74
2023/12/05 05:44:24;;;;;;;30.35;16.50;;;0.00;99.90;;;;;;4965467;28;20058;-74
2023/12/05 05:46:49;;;;;;;37.63;17.25;;;0.00;99.90;;;;;;4950390;28;20038;-74
2023/12/05 05:49:15;;;;;;;30.42;17.08;;;0.00;99.90;;;;;;4936873;28;20047;-74
2023/12/05 05:51:41;;;;;;;31.55;15.82;;;0.00;99.90;;;;;;4948685;28;20114;-74
2023/12/05 05:54:06;;;;;;;33.92;15.63;;;0.00;99.90;;;;;;4947110;28;20047;-74
2023/12/05 05:56:41;;;;;;;29.75;16.13;;;0.00;99.90;;;;;;4964950;28;20051;-74
2023/12/05 05:59:07;;;;;;;34.30;16.30;;;0.00;99.90;;;;;;4946363;28;20420;-74
2023/12/05 06:01:32;;;;;;;31.65;15.35;;;0.00;99.90;;;;;;4954580;28;20053;-74
2023/12/05 06:03:58;;;;;;;29.00;15.57;;;0.00;99.90;;;;;;4941515;28;20126;-74
2023/12/05 06:06:24;;;;;;;30.45;15.50;;;0.00;99.90;;;;;;4968692;28;20038;-74
2023/12/05 06:08:49;;;;;;;36.20;18.90;;;0.00;99.90;;;;;;4963995;28;20117;-74
2023/12/05 06:11:15;;;;;;;32.28;16.15;;;0.00;99.90;;;;;;4929406;28;20039;-74
2023/12/05 06:13:40;;;;;;;38.97;17.73;;;0.00;99.90;;;;;;4960414;28;20035;-74
2023/12/05 06:16:07;;;;;;;32.03;16.73;;;0.00;99.90;;;;;;4947430;28;20058;-75
2023/12/05 06:18:33;;;;;;;38.92;18.55;;;0.00;99.90;;;;;;4974390;28;20035;-74
2023/12/05 06:20:58;;;;;;;33.45;15.80;;;0.10;99.90;;;;;;4956627;28;20039;-75
2023/12/05 06:23:24;;;;;;;32.10;16.60;;;0.00;99.90;;;;;;4961117;28;20043;-75
2023/12/05 06:25:50;;;;;;;34.08;16.83;;;0.00;99.90;;;;;;4953164;28;20027;-74
2023/12/05 06:28:15;;;;;;;35.30;17.27;;;0.30;99.90;;;;;;4951783;28;20031;-75
2023/12/05 06:30:41;;;;;;;31.08;16.50;;;0.00;99.90;;;;;;4943476;28;20043;-74
2023/12/05 06:33:07;;;;;;;34.33;16.40;;;0.00;99.90;;;;;;4952959;28;20069;-74
2023/12/05 06:35:32;;;;;;;35.35;16.75;;;0.00;99.90;;;;;;4945768;28;20047;-74
2023/12/05 06:37:58;;;;;;;30.10;16.05;;;0.00;99.90;;;;;;4963988;28;20039;-74
2023/12/05 06:40:23;;;;;;;34.47;16.02;;;0.00;99.90;;;;;;4964943;28;20066;-74
2023/12/05 06:42:50;;;;;;;31.83;16.08;;;0.00;99.90;;;;;;4955315;28;20046;-74
2023/12/05 06:45:15;;;;;;;34.58;14.93;;;0.00;99.90;;;;;;4945653;28;20105;-74
2023/12/05 06:47:41;;;;;;;31.65;15.85;;;0.00;99.90;;;;;;4933503;28;20049;-74
2023/12/05 06:50:10;;;;;;;34.33;15.57;;;0.00;99.90;;;;;;4963463;28;20054;-74
2023/12/05 06:52:40;;;;;;;35.40;17.00;;;0.00;99.90;;;;;;4959631;28;20031;-74
2023/12/05 06:55:07;;;;;;;30.35;14.60;;;0.00;99.90;;;;;;4950613;28;20184;-74
2023/12/05 06:57:32;;;;;;;34.67;16.52;;;0.00;99.90;;;;;;4950767;28;20115;-74
2023/12/05 06:59:58;;;;;;;35.40;15.10;;;0.00;99.90;;;;;;4967435;28;20139;-75
2023/12/05 07:02:24;;;;;;;33.88;16.45;;;0.00;99.90;;;;;;4959686;28;20497;-74
2023/12/05 07:04:50;;;;;;;33.78;15.27;;;0.00;99.90;;;;;;4922588;28;20046;-75
2023/12/05 07:07:16;;;;;;;34.20;16.00;;;0.00;99.90;;;;;;4953471;28;20043;-75
2023/12/05 07:09:42;;;;;;;28.17;14.35;;;0.00;99.90;;;;;;4958099;28;20504;-75
2023/12/05 07:12:08;;;;;;;34.65;17.63;;;0.00;99.90;;;;;;4959612;28;20035;-74
2023/12/05 07:14:35;;;;;;;33.70;15.40;;;-0.10;99.90;;;;;;4959248;28;20053;-75
2023/12/05 07:17:00;;;;;;;29.50;15.70;;;0.00;99.90;;;;;;4960539;28;20146;-75
2023/12/05 07:19:26;;;;;;;37.42;17.25;;;0.00;99.90;;;;;;4960515;28;20126;-75
2023/12/05 07:21:52;;;;;;;33.05;16.20;;;-0.10;99.90;;;;;;4963965;28;20047;-75
2023/12/05 07:24:17;;;;;;;36.63;17.85;;;-0.10;99.90;;;;;;4963772;28;20070;-75
2023/12/05 07:26:43;;;;;;;30.10;16.17;;;-0.10;99.90;;;;;;4944720;28;20043;-75
2023/12/05 07:29:09;;;;;;;30.20;16.20;;;-0.10;99.90;;;;;;4963176;28;20070;-75
2023/12/05 07:31:35;;;;;;;35.10;15.60;;;-0.10;99.90;;;;;;4953851;28;20117;-74
2023/12/05 07:34:01;;;;;;;36.35;16.13;;;-0.10;99.90;;;;;;4968206;28;20075;-75
2023/12/05 07:36:26;;;;;;;31.95;15.57;;;-0.10;99.90;;;;;;4960635;28;20120;-75
2023/12/05 07:38:52;;;;;;;29.67;15.90;;;-0.10;99.90;;;;;;4947668;28;20098;-74
2023/12/05 07:41:22;;;;;;;34.15;15.82;;;-0.10;99.90;;;;;;4946281;28;20045;-74
2023/12/05 07:43:49;;;;;;;33.78;16.10;;;-0.10;99.90;;;;;;4957886;28;20583;-75
2023/12/05 07:46:15;;;;;;;34.35;17.15;;;-0.10;99.90;;;;;;4962212;28;20130;-75
2023/12/05 07:48:41;;;;;;;36.72;16.65;;;-0.10;99.90;;;;;;4966721;28;20047;-75
2023/12/05 07:51:07;;;;;;;37.50;16.92;;;-0.10;99.90;;;;;;4947253;28;20046;-75
2023/12/05 07:53:33;;;;;;;32.80;15.50;;;-0.10;99.90;;;;;;4950116;28;20078;-75
2023/12/05 07:55:59;;;;;;;34.30;16.30;;;-0.10;99.90;;;;;;4972184;28;20507;-75
2023/12/05 07:58:25;;;;;;;35.72;16.85;;;-0.10;99.90;;;;;;4937760;28;20034;-75
2023/12/05 08:00:51;;;;;;;35.63;16.60;;;-0.10;99.90;;;;;;4947272;28;20039;-75
2023/12/05 08:03:17;;;;;;;37.65;15.82;;;-0.10;99.90;;;;;;4964477;28;20480;-75
2023/12/05 08:05:43;;;;;;;33.10;16.50;;;-0.10;99.90;;;;;;4938655;28;20073;-74
2023/12/05 08:08:08;;;;;;;33.53;15.52;;;-0.10;99.90;;;;;;4941050;28;20046;-76
2023/12/05 08:10:34;;;;;;;32.40;16.77;;;-0.10;99.90;;;;;;4941907;28;20691;-76
2023/12/05 08:13:00;;;;;;;31.90;15.00;;;0.30;99.90;;;;;;4942308;28;20047;-75
2023/12/05 08:15:25;;;;;;;36.15;16.88;;;-0.10;99.90;;;;;;4944977;28;20053;-76
2023/12/05 08:17:51;;;;;;;33.95;15.85;;;-0.10;99.90;;;;;;4943232;28;20461;-75
2023/12/05 08:20:17;;;;;;;32.47;16.27;;;-0.10;99.90;;;;;;4938229;28;20420;-75
2023/12/05 08:22:42;;;;;;;31.67;16.33;;;-0.10;99.90;;;;;;4924458;28;20054;-75
2023/12/05 08:25:10;;;;;;;36.35;16.17;;;-0.10;99.90;;;;;;4954258;28;20098;-76
2023/12/05 08:27:36;;;;;;;36.97;17.23;;;0.40;99.90;;;;;;4952705;28;20039;-77
2023/12/05 08:30:02;;;;;;;31.98;17.35;;;-0.10;99.90;;;;;;4925684;28;20047;-75
2023/12/05 08:32:28;;;;;;;34.45;16.20;;;-0.10;99.90;;;;;;4941498;28;20519;-75
2023/12/05 08:34:54;;;;;;;34.25;16.73;;;-0.10;99.90;;;;;;4941136;28;20038;-75
2023/12/05 08:37:19;;;;;;;38.22;17.80;;;-0.10;99.90;;;;;;4940816;28;20038;-76
2023/12/05 08:39:45;;;;;;;34.20;17.35;;;-0.10;99.90;;;;;;4940222;28;20198;-75
2023/12/05 08:42:11;;;;;;;35.13;16.75;;;0.00;99.90;;;;;;4956179;28;20347;-76
2023/12/05 08:44:37;;;;;;;34.85;17.08;;;-0.10;99.90;;;;;;4940650;28;20500;-75
2023/12/05 08:47:03;;;;;;;35.65;16.40;;;-0.10;99.90;;;;;;4923824;28;20109;-75
2023/12/05 08:49:29;;;;;;;36.15;16.98;;;-0.90;99.90;;;;;;4925445;28;20587;-75
2023/12/05 08:51:55;;;;;;;36.15;17.05;;;0.00;99.90;;;;;;4941988;28;20492;-75
2023/12/05 08:54:21;;;;;;;35.90;17.95;;;0.00;99.90;;;;;;4953378;28;20583;-75
2023/12/05 08:56:47;;;;;;;30.10;16.13;;;0.00;99.90;;;;;;4958393;28;21123;-75
2023/12/05 08:59:13;;;;;;;35.63;17.70;;;0.00;99.90;;;;;;4942376;28;20042;-75
2023/12/05 09:01:38;;;;;;;40.35;16.45;;;0.00;99.90;;;;;;4942439;28;20047;-75
2023/12/05 09:04:04;;;;;;;33.97;16.17;;;0.00;99.90;;;;;;4926079;28;20046;-75
2023/12/05 09:06:30;;;;;;;34.50;16.05;;;0.60;99.90;;;;;;4974479;28;20113;-75
2023/12/05 09:08:57;;;;;;;36.22;17.08;;;0.00;99.90;;;;;;4957197;28;20038;-76
2023/12/05 09:11:23;;;;;;;33.63;16.48;;;0.00;99.90;;;;;;4955152;28;20073;-76
2023/12/05 09:13:49;;;;;;;37.15;16.92;;;0.00;99.90;;;;;;4973680;28;20097;-76
2023/12/05 09:16:15;;;;;;;32.38;16.08;;;0.10;99.90;;;;;;4938857;28;20066;-75
2023/12/05 09:18:40;;;;;;;35.17;18.17;;;0.00;99.90;;;;;;4925922;28;20041;-76
2023/12/05 09:21:08;;;;;;;34.85;16.48;;;0.00;99.90;;;;;;4939987;28;20042;-76
2023/12/05 09:23:33;;;;;;;38.60;17.48;;;0.10;99.90;;;;;;4938273;28;20049;-75
2023/12/05 09:25:59;;;;;;;37.40;17.27;;;0.10;99.90;;;;;;4919340;28;20050;-75
2023/12/05 09:28:25;;;;;;;35.20;17.85;;;0.10;99.90;;;;;;4940999;28;20050;-75
2023/12/05 09:30:50;;;;;;;32.22;16.73;;;0.10;99.90;;;;;;4939987;28;20137;-75
2023/12/05 09:33:16;;;;;;;31.30;16.63;;;0.10;99.90;;;;;;4941145;28;20476;-75
2023/12/05 09:35:42;;;;;;;36.88;18.15;;;0.10;99.90;;;;;;4938444;28;20038;-75
2023/12/05 09:38:07;;;;;;;32.35;15.90;;;0.10;99.90;;;;;;4938986;28;20046;-75
2023/12/05 09:40:35;;;;;;;38.47;18.25;;;0.10;99.90;;;;;;4937863;28;20500;-75
2023/12/05 09:43:04;;;;;;;37.20;17.20;;;0.10;99.90;;;;;;4938961;28;20062;-75
2023/12/05 09:45:37;;;;;;;34.58;16.60;;;0.20;99.90;;;;;;4939453;28;20045;-76
2023/12/05 09:48:05;;;;;;;36.72;16.80;;;0.20;99.90;;;;;;4949165;28;20937;-75
2023/12/05 09:50:32;;;;;;;37.63;17.83;;;0.20;99.90;;;;;;4950494;28;20074;-76
2023/12/05 09:52:59;;;;;;;34.05;17.40;;;0.20;99.90;;;;;;4922930;28;20074;-78
2023/12/05 09:55:25;;;;;;;32.25;16.92;;;0.20;99.90;;;;;;4951793;28;20051;-80
2023/12/05 09:57:51;;;;;;;35.10;17.75;;;0.20;99.90;;;;;;4926126;28;20046;-80
2023/12/05 10:00:18;;;;;;;34.03;17.42;;;0.20;99.90;;;;;;4939923;28;20061;-79
2023/12/05 10:02:46;;;;;;;38.88;18.23;;;0.10;99.90;;;;;;4923234;28;20076;-80
2023/12/05 10:05:14;;;;;;;34.83;17.38;;;0.70;99.90;;;;;;4939311;28;20038;-81
2023/12/05 10:07:42;;;;;;;36.22;19.20;;;-0.90;99.90;;;;;;4939579;28;20491;-79
2023/12/05 10:10:08;;;;;;;36.35;18.30;;;0.20;99.90;;;;;;4954291;28;20050;-81
2023/12/05 10:12:36;;;;;;;35.40;16.80;;;0.20;99.90;;;;;;4956405;28;20038;-79
2023/12/05 10:15:03;;;;;;;37.05;18.88;;;0.50;99.90;;;;;;4927087;28;20043;-78
2023/12/05 10:17:32;;;;;;;35.17;17.30;;;0.30;99.90;;;;;;4958372;28;20035;-80
2023/12/05 10:19:59;;;;;;;31.77;15.98;;;0.30;99.90;;;;;;4939830;28;20058;-79
2023/12/05 10:22:31;;;;;;;34.20;15.57;;;0.30;99.90;;;;;;4956634;28;20053;-80
2023/12/05 10:24:57;;;;;;;32.78;16.20;;;0.30;99.90;;;;;;4955489;28;20112;-75
2023/12/05 10:27:22;;;;;;;33.67;16.73;;;0.30;99.90;;;;;;4940063;28;20492;-77
2023/12/05 10:29:48;;;;;;;31.70;15.45;;;0.30;99.90;;;;;;4939654;28;20054;-75
2023/12/05 10:32:14;;;;;;;31.33;16.00;;;0.30;99.90;;;;;;4939900;28;21234;-75
2023/12/05 10:34:51;;;;;;;31.35;17.85;;;0.40;99.90;;;;;;4924980;28;20071;-76
2023/12/05 10:37:24;;;;;;;28.27;15.80;;;0.30;99.90;;;;;;4957456;28;20030;-75
2023/12/05 10:39:55;;;;;;;36.45;18.20;;;0.30;99.90;;;;;;4969399;28;20411;-75
2023/12/05 10:42:28;;;;;;;29.92;16.00;;;0.80;99.90;;;;;;4966442;28;20109;-76
2023/12/05 10:44:54;;;;;;;31.73;15.77;;;0.30;99.90;;;;;;4975289;28;20053;-75
2023/12/05 10:47:20;;;;;;;27.48;15.07;;;0.30;99.90;;;;;;4988042;28;20038;-75
2023/12/05 10:49:47;;;;;;;36.42;16.58;;;0.30;99.90;;;;;;4965484;28;20035;-76
2023/12/05 10:52:14;;;;;;;30.50;15.98;;;0.30;99.90;;;;;;4967791;28;20035;-75
2023/12/05 10:54:40;;;;;;;27.95;15.93;;;0.30;99.90;;;;;;4930059;28;20492;-75
2023/12/05 10:57:09;;;;;;;32.42;16.30;;;0.40;99.90;;;;;;4953503;28;20070;-75
2023/12/05 10:59:36;;;;;;;31.27;15.95;;;0.20;99.90;;;;;;4969834;28;20047;-75
2023/12/05 11:02:13;;;;;;;31.73;16.23;;;0.30;99.90;;;;;;4970335;28;20035;-75
2023/12/05 11:04:41;;;;;;;36.42;16.73;;;0.30;99.90;;;;;;4951551;28;20054;-75
2023/12/05 11:07:10;;;;;;;33.00;16.38;;;-0.50;99.90;;;;;;4960014;28;20159;-75
2023/12/05 11:09:40;;;;;;;35.72;16.35;;;0.30;99.90;;;;;;4946448;28;20062;-75
2023/12/05 11:12:08;;;;;;;27.83;16.13;;;0.30;99.90;;;;;;4941486;28;20076;-75
2023/12/05 11:14:40;;;;;;;33.25;15.98;;;0.30;99.90;;;;;;4956986;28;20275;-75
2023/12/05 11:17:18;;;;;;;27.73;15.48;;;0.30;99.90;;;;;;4972786;28;20043;-76
2023/12/05 11:20:05;;;;;;;34.03;15.27;;;0.30;99.90;;;;;;4957116;28;20051;-76
2023/12/05 11:22:53;;;;;;;30.33;14.95;;;0.30;99.90;;;;;;4956602;28;20073;-76
2023/12/05 11:26:03;;;;;;;34.35;16.88;;;0.30;99.90;;;;;;4956877;28;20041;-76
2023/12/05 11:28:40;;;;;;;30.55;15.32;;;0.30;99.90;;;;;;4944478;28;20130;-76
2023/12/05 11:31:21;;;;;;;31.77;16.05;;;0.30;99.90;;;;;;4972618;28;20050;-76
2023/12/05 11:33:59;;;;;;;34.42;16.75;;;0.20;99.90;;;;;;4962298;28;20046;-76
2023/12/05 11:36:58;;;;;;;30.83;15.43;;;0.20;99.90;;;;;;4972808;28;20042;-75
2023/12/05 11:39:25;;;;;;;26.50;13.77;;;0.30;99.90;;;;;;4966642;28;20125;-75
2023/12/05 11:42:11;;;;;;;27.33;13.68;;;0.30;99.90;;;;;;4972230;28;20046;-75
2023/12/05 11:44:38;;;;;;;31.15;15.88;;;1.40;99.90;;;;;;4972052;28;20097;-75
2023/12/05 11:47:08;;;;;;;30.77;15.48;;;0.20;99.90;;;;;;4972619;28;20101;-75
2023/12/05 11:49:37;;;;;;;31.90;16.42;;;0.20;99.90;;;;;;4972213;28;20514;-75
2023/12/05 11:52:10;;;;;;;29.13;14.45;;;0.30;99.90;;;;;;4956113;28;20507;-75
2023/12/05 11:54:36;;;;;;;29.63;15.40;;;0.30;99.90;;;;;;4955887;28;20046;-75
2023/12/05 11:57:13;;;;;;;31.10;16.48;;;0.30;99.90;;;;;;4985663;28;20514;-75
2023/12/05 11:59:40;;;;;;;32.00;15.90;;;0.30;99.90;;;;;;4972402;28;20479;-75
2023/12/05 12:02:08;;;;;;;33.35;16.58;;;0.40;99.90;;;;;;4972109;28;20404;-75
2023/12/05 12:04:34;;;;;;;30.65;15.18;;;0.40;99.90;;;;;;4972221;28;20054;-75
2023/12/05 12:07:00;;;;;;;30.75;14.82;;;0.40;99.90;;;;;;4956105;28;20046;-75
2023/12/05 12:09:26;;;;;;;31.08;15.68;;;0.50;99.90;;;;;;4971938;28;20142;-75
2023/12/05 12:11:53;;;;;;;34.20;16.75;;;0.40;99.90;;;;;;4955574;28;20121;-75
2023/12/05 12:14:19;;;;;;;35.60;16.00;;;0.50;99.90;;;;;;4971966;28;20046;-75
2023/12/05 12:16:50;;;;;;;30.20;16.67;;;0.50;99.90;;;;;;4956161;28;20089;-75
2023/12/05 12:19:16;;;;;;;34.15;18.05;;;0.40;99.90;;;;;;4939786;28;20042;-75
2023/12/05 12:21:45;;;;;;;35.40;16.77;;;0.40;99.90;;;;;;4971141;28;20042;-75
2023/12/05 12:24:22;;;;;;;34.33;17.30;;;0.40;99.90;;;;;;4971694;28;20534;-75
2023/12/05 12:26:55;;;;;;;31.33;15.57;;;0.30;99.90;;;;;;4971932;28;20089;-75
2023/12/05 12:29:24;;;;;;;33.95;15.43;;;0.60;99.90;;;;;;4939705;28;20202;-75
2023/12/05 12:31:52;;;;;;;38.97;17.60;;;0.30;99.90;;;;;;4971823;28;20113;-75
2023/12/05 12:34:27;;;;;;;40.55;17.42;;;0.30;99.90;;;;;;4940018;28;20093;-75